Impacts METAR Board
IDs:

KORD - Chicago/O'Hare Intl, IL, US

Updated at: 0300 UTC 20 Mar 2019
Potential Impact None Slight Moderate High
Time 19/15Z 19/16Z 19/17Z 19/18Z 19/19Z 19/20Z 19/21Z 19/22Z 19/23Z 20/00Z 20/01Z 20/02Z 20/03Z
Temp41 43 45 47 48 48 49 49 48 46 45 43 42
Dewpt26 24 21 20 21 22 23 24 24 25 26 27 27
Altim30.40 30.39 30.39 30.38 30.36 30.33 30.31 30.29 30.28 30.26 30.26 30.25 30.24
VIS10 10 10 10 10 10 10 10 10 10 10 10 10
CIG-- -- -- -- -- -- 250 250 250 250 250 250 250
CoverFEWFEWFEWSCTSCTSCTBKNBKNBKNBKNBKNBKNBKN
FltCatVFRVFRVFRVFRVFRVFRVFRVFRVFRVFRVFRVFRVFR
WX--------------------------
WDir250210240250220230220220220210200210180
WSpd9 8 7 11 9 12 10 12 11 9 4 6 5
WGst-- -- -- 16 -- -- 16 16 -- -- -- -- --
Raw hourly METARs
KORD 191451Z 25009KT 10SM FEW250 05/M03 A3040 RMK AO2 SLP301 T00501033 51009
KORD 191551Z 21008KT 10SM FEW250 06/M04 A3039 RMK AO2 SLP299 T00611044
KORD 191651Z 24007KT 10SM FEW060 FEW250 07/M06 A3039 RMK AO2 SLP296 T00721061
KORD 191751Z 25011G16KT 10SM FEW060 SCT250 08/M07 A3038 RMK AO2 SLP293 T00831067 10083 21011 58007
KORD 191851Z 22009KT 180V270 10SM FEW065 SCT250 09/M06 A3036 RMK AO2 SLP286 T00891061
KORD 191951Z COR 23012KT 10SM FEW065 SCT250 09/M06 A3033 RMK AO2 SLP275 T00891056
KORD 192051Z 22010G16KT 10SM FEW065 BKN250 09/M05 A3031 RMK AO2 SLP270 T00941050 56022
KORD 192151Z 22012G16KT 10SM FEW065 BKN250 09/M04 A3029 RMK AO2 SLP263 T00941044
KORD 192251Z 22011KT 10SM FEW065 BKN250 09/M04 A3028 RMK AO2 SLP257 T00891044
KORD 192351Z 21009KT 10SM FEW065 BKN250 08/M04 A3026 RMK AO2 SLP254 T00781039 10094 20078 56017
KORD 200051Z 20004KT 10SM SCT200 BKN250 07/M03 A3026 RMK AO2 SLP252 T00721033
KORD 200151Z 21006KT 10SM FEW190 BKN250 06/M03 A3025 RMK AO2 SLP247 T00611028
KORD 200251Z 18005KT 10SM FEW180 BKN250 06/M03 A3024 RMK AO2 SLP245 T00561028 58008



Page loaded:  03:29 UTC  |   08:29 PM Pacific  |   09:29 PM Mountain  |   10:29 PM Central  |   11:29 PM Eastern

 

ADVISORIES

FORECASTS

FORECASTS

OBSERVATIONS

USER TOOLS

ABOUT US